sensor_id;sensor_type;location;lat;lon;timestamp;P1;durP1;ratioP1;P2;durP2;ratioP2
3843;SDS011;1937;51.444;6.484;2023-09-07T00:01:30;8.57;;;4.70;;
3843;SDS011;1937;51.444;6.484;2023-09-07T00:03:57;5.83;;;4.63;;
3843;SDS011;1937;51.444;6.484;2023-09-07T00:06:24;7.70;;;4.97;;
3843;SDS011;1937;51.444;6.484;2023-09-07T00:08:52;5.87;;;5.23;;
3843;SDS011;1937;51.444;6.484;2023-09-07T00:11:19;8.07;;;5.60;;
3843;SDS011;1937;51.444;6.484;2023-09-07T00:13:46;8.50;;;6.23;;
3843;SDS011;1937;51.444;6.484;2023-09-07T00:16:15;6.83;;;5.33;;
3843;SDS011;1937;51.444;6.484;2023-09-07T00:18:42;11.00;;;6.30;;
3843;SDS011;1937;51.444;6.484;2023-09-07T00:21:08;5.30;;;3.83;;
3843;SDS011;1937;51.444;6.484;2023-09-07T00:23:35;6.33;;;4.60;;
3843;SDS011;1937;51.444;6.484;2023-09-07T00:26:03;5.83;;;4.70;;
3843;SDS011;1937;51.444;6.484;2023-09-07T00:28:29;7.70;;;4.47;;
3843;SDS011;1937;51.444;6.484;2023-09-07T00:30:56;5.80;;;5.20;;
3843;SDS011;1937;51.444;6.484;2023-09-07T00:33:23;6.13;;;4.30;;
3843;SDS011;1937;51.444;6.484;2023-09-07T00:35:49;5.20;;;4.70;;
3843;SDS011;1937;51.444;6.484;2023-09-07T00:38:18;6.97;;;4.90;;
3843;SDS011;1937;51.444;6.484;2023-09-07T00:40:45;6.03;;;4.00;;
3843;SDS011;1937;51.444;6.484;2023-09-07T00:43:13;6.50;;;4.50;;
3843;SDS011;1937;51.444;6.484;2023-09-07T00:45:39;4.67;;;3.77;;
3843;SDS011;1937;51.444;6.484;2023-09-07T00:48:07;10.20;;;6.40;;
3843;SDS011;1937;51.444;6.484;2023-09-07T00:50:34;6.30;;;4.70;;
3843;SDS011;1937;51.444;6.484;2023-09-07T00:53:01;7.07;;;4.73;;
3843;SDS011;1937;51.444;6.484;2023-09-07T00:55:28;6.60;;;4.27;;
3843;SDS011;1937;51.444;6.484;2023-09-07T00:57:57;6.70;;;5.00;;
3843;SDS011;1937;51.444;6.484;2023-09-07T01:00:25;6.10;;;5.40;;
3843;SDS011;1937;51.444;6.484;2023-09-07T01:02:52;4.70;;;4.20;;
3843;SDS011;1937;51.444;6.484;2023-09-07T01:05:21;5.97;;;4.53;;
3843;SDS011;1937;51.444;6.484;2023-09-07T01:07:57;7.30;;;4.83;;
3843;SDS011;1937;51.444;6.484;2023-09-07T01:10:29;12.90;;;4.80;;
3843;SDS011;1937;51.444;6.484;2023-09-07T01:12:56;5.50;;;4.00;;
3843;SDS011;1937;51.444;6.484;2023-09-07T01:15:23;7.70;;;4.00;;
3843;SDS011;1937;51.444;6.484;2023-09-07T01:17:50;5.70;;;3.93;;
3843;SDS011;1937;51.444;6.484;2023-09-07T01:20:18;4.77;;;3.97;;
3843;SDS011;1937;51.444;6.484;2023-09-07T01:22:47;7.63;;;4.50;;
3843;SDS011;1937;51.444;6.484;2023-09-07T01:25:14;4.90;;;4.23;;
3843;SDS011;1937;51.444;6.484;2023-09-07T01:27:41;8.70;;;4.60;;
3843;SDS011;1937;51.444;6.484;2023-09-07T01:30:08;6.00;;;3.97;;
3843;SDS011;1937;51.444;6.484;2023-09-07T01:32:36;4.30;;;3.50;;
3843;SDS011;1937;51.444;6.484;2023-09-07T01:35:03;4.97;;;4.47;;
3843;SDS011;1937;51.444;6.484;2023-09-07T01:37:32;5.07;;;3.87;;
3843;SDS011;1937;51.444;6.484;2023-09-07T01:40:00;5.13;;;3.47;;
3843;SDS011;1937;51.444;6.484;2023-09-07T01:42:32;5.63;;;4.00;;
3843;SDS011;1937;51.444;6.484;2023-09-07T01:44:59;6.50;;;4.27;;
3843;SDS011;1937;51.444;6.484;2023-09-07T01:47:25;4.90;;;4.40;;
3843;SDS011;1937;51.444;6.484;2023-09-07T01:49:52;4.63;;;3.90;;
3843;SDS011;1937;51.444;6.484;2023-09-07T01:52:19;5.53;;;4.10;;
3843;SDS011;1937;51.444;6.484;2023-09-07T01:54:45;3.30;;;2.60;;
3843;SDS011;1937;51.444;6.484;2023-09-07T01:57:13;2.87;;;1.97;;
3843;SDS011;1937;51.444;6.484;2023-09-07T01:59:40;3.10;;;2.70;;
3843;SDS011;1937;51.444;6.484;2023-09-07T02:02:06;3.60;;;3.10;;
3843;SDS011;1937;51.444;6.484;2023-09-07T02:04:33;4.83;;;4.40;;
3843;SDS011;1937;51.444;6.484;2023-09-07T02:07:00;5.17;;;4.07;;
3843;SDS011;1937;51.444;6.484;2023-09-07T02:09:26;5.20;;;4.00;;
3843;SDS011;1937;51.444;6.484;2023-09-07T02:11:54;6.10;;;4.33;;
3843;SDS011;1937;51.444;6.484;2023-09-07T02:14:22;9.27;;;5.10;;
3843;SDS011;1937;51.444;6.484;2023-09-07T02:16:48;10.10;;;5.93;;
3843;SDS011;1937;51.444;6.484;2023-09-07T02:19:15;10.50;;;5.23;;
3843;SDS011;1937;51.444;6.484;2023-09-07T02:21:43;8.83;;;5.33;;
3843;SDS011;1937;51.444;6.484;2023-09-07T02:24:09;6.83;;;5.00;;
3843;SDS011;1937;51.444;6.484;2023-09-07T02:26:36;6.30;;;4.80;;
3843;SDS011;1937;51.444;6.484;2023-09-07T02:29:08;9.83;;;6.03;;
3843;SDS011;1937;51.444;6.484;2023-09-07T02:31:36;4.67;;;4.07;;
3843;SDS011;1937;51.444;6.484;2023-09-07T02:34:03;7.53;;;4.10;;
3843;SDS011;1937;51.444;6.484;2023-09-07T02:36:30;5.97;;;4.17;;
3843;SDS011;1937;51.444;6.484;2023-09-07T02:38:56;4.67;;;4.20;;
3843;SDS011;1937;51.444;6.484;2023-09-07T02:41:23;6.23;;;4.80;;
3843;SDS011;1937;51.444;6.484;2023-09-07T02:43:49;5.63;;;3.87;;
3843;SDS011;1937;51.444;6.484;2023-09-07T02:46:16;8.87;;;3.93;;
3843;SDS011;1937;51.444;6.484;2023-09-07T02:48:44;4.23;;;3.63;;
3843;SDS011;1937;51.444;6.484;2023-09-07T02:51:11;4.60;;;3.37;;
3843;SDS011;1937;51.444;6.484;2023-09-07T02:53:38;6.77;;;4.20;;
3843;SDS011;1937;51.444;6.484;2023-09-07T02:56:05;7.17;;;5.27;;
3843;SDS011;1937;51.444;6.484;2023-09-07T02:58:32;7.27;;;4.57;;
3843;SDS011;1937;51.444;6.484;2023-09-07T03:00:59;5.67;;;4.37;;
3843;SDS011;1937;51.444;6.484;2023-09-07T03:03:26;4.67;;;4.20;;
3843;SDS011;1937;51.444;6.484;2023-09-07T03:05:54;6.00;;;3.83;;
3843;SDS011;1937;51.444;6.484;2023-09-07T03:08:20;7.70;;;5.70;;
3843;SDS011;1937;51.444;6.484;2023-09-07T03:10:47;6.60;;;4.80;;
3843;SDS011;1937;51.444;6.484;2023-09-07T03:13:13;8.97;;;4.67;;
3843;SDS011;1937;51.444;6.484;2023-09-07T03:15:40;8.63;;;5.23;;
3843;SDS011;1937;51.444;6.484;2023-09-07T03:18:07;8.53;;;5.20;;
3843;SDS011;1937;51.444;6.484;2023-09-07T03:20:33;7.47;;;5.47;;
3843;SDS011;1937;51.444;6.484;2023-09-07T03:23:01;6.47;;;5.30;;
3843;SDS011;1937;51.444;6.484;2023-09-07T03:25:29;7.53;;;5.03;;
3843;SDS011;1937;51.444;6.484;2023-09-07T03:27:55;6.90;;;4.97;;
3843;SDS011;1937;51.444;6.484;2023-09-07T03:30:22;7.37;;;5.20;;
3843;SDS011;1937;51.444;6.484;2023-09-07T03:32:49;8.63;;;4.73;;
3843;SDS011;1937;51.444;6.484;2023-09-07T03:35:15;6.77;;;4.37;;
3843;SDS011;1937;51.444;6.484;2023-09-07T03:37:42;8.07;;;4.90;;
3843;SDS011;1937;51.444;6.484;2023-09-07T03:40:10;9.20;;;5.63;;
3843;SDS011;1937;51.444;6.484;2023-09-07T03:42:37;6.73;;;5.13;;
3843;SDS011;1937;51.444;6.484;2023-09-07T03:45:04;5.50;;;4.90;;
3843;SDS011;1937;51.444;6.484;2023-09-07T03:47:32;8.67;;;5.40;;
3843;SDS011;1937;51.444;6.484;2023-09-07T03:49:58;5.53;;;4.50;;
3843;SDS011;1937;51.444;6.484;2023-09-07T03:52:26;8.37;;;5.30;;
3843;SDS011;1937;51.444;6.484;2023-09-07T03:54:53;5.67;;;5.07;;
3843;SDS011;1937;51.444;6.484;2023-09-07T03:57:22;7.40;;;5.83;;
3843;SDS011;1937;51.444;6.484;2023-09-07T03:59:49;12.17;;;6.60;;
3843;SDS011;1937;51.444;6.484;2023-09-07T04:02:15;10.40;;;5.87;;
3843;SDS011;1937;51.444;6.484;2023-09-07T04:04:42;8.60;;;5.30;;
3843;SDS011;1937;51.444;6.484;2023-09-07T04:07:09;8.23;;;5.90;;
3843;SDS011;1937;51.444;6.484;2023-09-07T04:09:36;14.27;;;5.47;;
3843;SDS011;1937;51.444;6.484;2023-09-07T04:12:02;7.73;;;5.30;;
3843;SDS011;1937;51.444;6.484;2023-09-07T04:14:31;5.37;;;4.87;;
3843;SDS011;1937;51.444;6.484;2023-09-07T04:16:57;6.07;;;4.60;;
3843;SDS011;1937;51.444;6.484;2023-09-07T04:19:24;7.90;;;4.47;;
3843;SDS011;1937;51.444;6.484;2023-09-07T04:21:51;7.70;;;5.90;;
3843;SDS011;1937;51.444;6.484;2023-09-07T04:24:17;8.17;;;4.93;;
3843;SDS011;1937;51.444;6.484;2023-09-07T04:26:44;7.00;;;5.30;;
3843;SDS011;1937;51.444;6.484;2023-09-07T04:29:11;6.37;;;5.50;;
3843;SDS011;1937;51.444;6.484;2023-09-07T04:31:39;8.30;;;5.63;;
3843;SDS011;1937;51.444;6.484;2023-09-07T04:34:06;6.90;;;4.80;;
3843;SDS011;1937;51.444;6.484;2023-09-07T04:36:33;6.70;;;4.90;;
3843;SDS011;1937;51.444;6.484;2023-09-07T04:38:59;6.37;;;5.40;;
3843;SDS011;1937;51.444;6.484;2023-09-07T04:41:27;5.33;;;4.30;;
3843;SDS011;1937;51.444;6.484;2023-09-07T04:43:53;6.00;;;4.07;;
3843;SDS011;1937;51.444;6.484;2023-09-07T04:46:21;5.43;;;3.90;;
3843;SDS011;1937;51.444;6.484;2023-09-07T04:48:49;4.43;;;3.83;;
3843;SDS011;1937;51.444;6.484;2023-09-07T04:51:16;5.07;;;4.57;;
3843;SDS011;1937;51.444;6.484;2023-09-07T04:53:43;6.40;;;5.57;;
3843;SDS011;1937;51.444;6.484;2023-09-07T04:56:09;5.30;;;4.53;;
3843;SDS011;1937;51.444;6.484;2023-09-07T04:58:36;6.27;;;4.30;;
3843;SDS011;1937;51.444;6.484;2023-09-07T05:01:02;9.23;;;4.50;;
3843;SDS011;1937;51.444;6.484;2023-09-07T05:03:29;8.03;;;5.30;;
3843;SDS011;1937;51.444;6.484;2023-09-07T05:05:58;8.97;;;5.20;;
3843;SDS011;1937;51.444;6.484;2023-09-07T05:08:25;5.47;;;4.40;;
3843;SDS011;1937;51.444;6.484;2023-09-07T05:10:54;10.53;;;4.90;;
3843;SDS011;1937;51.444;6.484;2023-09-07T05:13:22;7.60;;;4.50;;
3843;SDS011;1937;51.444;6.484;2023-09-07T05:15:49;10.70;;;6.20;;
3843;SDS011;1937;51.444;6.484;2023-09-07T05:18:16;11.77;;;5.93;;
3843;SDS011;1937;51.444;6.484;2023-09-07T05:20:43;9.10;;;5.03;;
3843;SDS011;1937;51.444;6.484;2023-09-07T05:23:12;8.90;;;5.60;;
3843;SDS011;1937;51.444;6.484;2023-09-07T05:25:43;7.20;;;4.90;;
3843;SDS011;1937;51.444;6.484;2023-09-07T05:28:11;10.80;;;5.70;;
3843;SDS011;1937;51.444;6.484;2023-09-07T05:30:39;13.73;;;5.80;;
3843;SDS011;1937;51.444;6.484;2023-09-07T05:33:05;13.73;;;6.10;;
3843;SDS011;1937;51.444;6.484;2023-09-07T05:35:33;9.33;;;5.87;;
3843;SDS011;1937;51.444;6.484;2023-09-07T05:38:00;9.27;;;5.83;;
3843;SDS011;1937;51.444;6.484;2023-09-07T05:40:28;16.47;;;6.13;;
3843;SDS011;1937;51.444;6.484;2023-09-07T05:42:55;11.07;;;5.47;;
3843;SDS011;1937;51.444;6.484;2023-09-07T05:45:21;9.93;;;5.43;;
3843;SDS011;1937;51.444;6.484;2023-09-07T05:47:48;6.40;;;5.10;;
3843;SDS011;1937;51.444;6.484;2023-09-07T05:50:14;9.00;;;6.30;;
3843;SDS011;1937;51.444;6.484;2023-09-07T05:52:41;11.27;;;6.97;;
3843;SDS011;1937;51.444;6.484;2023-09-07T05:55:08;5.73;;;4.90;;
3843;SDS011;1937;51.444;6.484;2023-09-07T05:57:36;8.63;;;5.00;;
3843;SDS011;1937;51.444;6.484;2023-09-07T06:00:03;8.50;;;5.73;;
3843;SDS011;1937;51.444;6.484;2023-09-07T06:02:31;6.40;;;5.30;;
3843;SDS011;1937;51.444;6.484;2023-09-07T06:04:58;10.03;;;6.30;;
3843;SDS011;1937;51.444;6.484;2023-09-07T06:07:24;17.57;;;5.57;;
3843;SDS011;1937;51.444;6.484;2023-09-07T06:09:53;16.13;;;6.60;;
3843;SDS011;1937;51.444;6.484;2023-09-07T06:12:19;8.67;;;6.00;;
3843;SDS011;1937;51.444;6.484;2023-09-07T06:14:47;6.77;;;5.73;;
3843;SDS011;1937;51.444;6.484;2023-09-07T06:17:14;8.23;;;6.53;;
3843;SDS011;1937;51.444;6.484;2023-09-07T06:19:41;10.20;;;5.80;;
3843;SDS011;1937;51.444;6.484;2023-09-07T06:22:07;8.23;;;6.30;;
3843;SDS011;1937;51.444;6.484;2023-09-07T06:24:34;15.00;;;8.57;;
3843;SDS011;1937;51.444;6.484;2023-09-07T06:27:01;13.20;;;7.87;;
3843;SDS011;1937;51.444;6.484;2023-09-07T06:29:27;15.07;;;8.70;;
3843;SDS011;1937;51.444;6.484;2023-09-07T06:31:55;19.97;;;8.37;;
3843;SDS011;1937;51.444;6.484;2023-09-07T06:34:23;13.00;;;8.43;;
3843;SDS011;1937;51.444;6.484;2023-09-07T06:36:50;14.83;;;8.37;;
3843;SDS011;1937;51.444;6.484;2023-09-07T06:39:16;14.43;;;9.27;;
3843;SDS011;1937;51.444;6.484;2023-09-07T06:41:44;14.53;;;7.90;;
3843;SDS011;1937;51.444;6.484;2023-09-07T06:44:12;13.90;;;8.87;;
3843;SDS011;1937;51.444;6.484;2023-09-07T06:46:39;15.20;;;9.30;;
3843;SDS011;1937;51.444;6.484;2023-09-07T06:49:07;10.73;;;8.20;;
3843;SDS011;1937;51.444;6.484;2023-09-07T06:51:34;12.33;;;8.03;;
3843;SDS011;1937;51.444;6.484;2023-09-07T06:54:01;16.27;;;9.27;;
3843;SDS011;1937;51.444;6.484;2023-09-07T06:56:28;19.03;;;10.50;;
3843;SDS011;1937;51.444;6.484;2023-09-07T06:58:56;16.77;;;9.10;;
3843;SDS011;1937;51.444;6.484;2023-09-07T07:01:23;13.00;;;7.50;;
3843;SDS011;1937;51.444;6.484;2023-09-07T07:03:49;15.50;;;8.80;;
3843;SDS011;1937;51.444;6.484;2023-09-07T07:06:17;16.23;;;8.00;;
3843;SDS011;1937;51.444;6.484;2023-09-07T07:08:44;14.63;;;7.80;;
3843;SDS011;1937;51.444;6.484;2023-09-07T07:11:11;15.00;;;8.40;;
3843;SDS011;1937;51.444;6.484;2023-09-07T07:13:37;10.30;;;7.63;;
3843;SDS011;1937;51.444;6.484;2023-09-07T07:16:04;10.53;;;7.30;;
3843;SDS011;1937;51.444;6.484;2023-09-07T07:18:31;12.40;;;8.00;;
3843;SDS011;1937;51.444;6.484;2023-09-07T07:20:57;10.20;;;7.10;;
3843;SDS011;1937;51.444;6.484;2023-09-07T07:23:25;18.33;;;9.50;;
3843;SDS011;1937;51.444;6.484;2023-09-07T07:25:52;8.60;;;7.07;;
3843;SDS011;1937;51.444;6.484;2023-09-07T07:28:18;13.53;;;7.73;;
3843;SDS011;1937;51.444;6.484;2023-09-07T07:30:45;9.70;;;7.33;;
3843;SDS011;1937;51.444;6.484;2023-09-07T07:33:13;13.20;;;6.80;;
3843;SDS011;1937;51.444;6.484;2023-09-07T07:35:40;13.20;;;8.23;;
3843;SDS011;1937;51.444;6.484;2023-09-07T07:38:06;11.60;;;7.30;;
3843;SDS011;1937;51.444;6.484;2023-09-07T07:40:35;11.70;;;9.03;;
3843;SDS011;1937;51.444;6.484;2023-09-07T07:43:01;11.67;;;7.13;;
3843;SDS011;1937;51.444;6.484;2023-09-07T07:45:29;12.70;;;6.10;;
3843;SDS011;1937;51.444;6.484;2023-09-07T07:47:57;11.37;;;6.30;;
3843;SDS011;1937;51.444;6.484;2023-09-07T07:50:23;10.70;;;6.57;;
3843;SDS011;1937;51.444;6.484;2023-09-07T07:52:50;13.27;;;7.23;;
3843;SDS011;1937;51.444;6.484;2023-09-07T07:55:17;13.80;;;6.93;;
3843;SDS011;1937;51.444;6.484;2023-09-07T07:57:45;12.60;;;7.50;;
3843;SDS011;1937;51.444;6.484;2023-09-07T08:00:12;12.70;;;5.73;;
3843;SDS011;1937;51.444;6.484;2023-09-07T08:02:39;17.63;;;7.07;;
3843;SDS011;1937;51.444;6.484;2023-09-07T08:05:06;8.87;;;5.77;;
3843;SDS011;1937;51.444;6.484;2023-09-07T08:07:33;9.30;;;5.70;;
3843;SDS011;1937;51.444;6.484;2023-09-07T08:09:59;10.50;;;4.70;;
3843;SDS011;1937;51.444;6.484;2023-09-07T08:12:26;9.87;;;5.30;;
3843;SDS011;1937;51.444;6.484;2023-09-07T08:14:54;15.07;;;5.40;;
3843;SDS011;1937;51.444;6.484;2023-09-07T08:17:21;8.03;;;4.73;;
3843;SDS011;1937;51.444;6.484;2023-09-07T08:19:49;10.20;;;5.40;;
3843;SDS011;1937;51.444;6.484;2023-09-07T08:22:20;10.00;;;5.83;;
3843;SDS011;1937;51.444;6.484;2023-09-07T08:24:46;11.20;;;5.20;;
3843;SDS011;1937;51.444;6.484;2023-09-07T08:27:13;9.67;;;4.60;;
3843;SDS011;1937;51.444;6.484;2023-09-07T08:29:43;6.70;;;4.57;;
3843;SDS011;1937;51.444;6.484;2023-09-07T08:32:14;9.37;;;4.87;;
3843;SDS011;1937;51.444;6.484;2023-09-07T08:34:41;6.40;;;4.57;;
3843;SDS011;1937;51.444;6.484;2023-09-07T08:37:07;5.03;;;4.47;;
3843;SDS011;1937;51.444;6.484;2023-09-07T08:39:34;8.03;;;4.90;;
3843;SDS011;1937;51.444;6.484;2023-09-07T08:42:01;8.57;;;5.03;;
3843;SDS011;1937;51.444;6.484;2023-09-07T08:44:29;5.93;;;4.80;;
3843;SDS011;1937;51.444;6.484;2023-09-07T08:46:59;12.20;;;4.90;;
3843;SDS011;1937;51.444;6.484;2023-09-07T08:49:27;5.00;;;4.23;;
3843;SDS011;1937;51.444;6.484;2023-09-07T08:51:58;6.53;;;4.17;;
3843;SDS011;1937;51.444;6.484;2023-09-07T08:54:26;7.07;;;5.10;;
3843;SDS011;1937;51.444;6.484;2023-09-07T08:56:54;5.50;;;3.97;;
3843;SDS011;1937;51.444;6.484;2023-09-07T08:59:23;6.63;;;4.03;;
3843;SDS011;1937;51.444;6.484;2023-09-07T09:01:50;7.30;;;4.20;;
3843;SDS011;1937;51.444;6.484;2023-09-07T09:04:16;5.30;;;4.10;;
3843;SDS011;1937;51.444;6.484;2023-09-07T09:06:47;10.93;;;4.30;;
3843;SDS011;1937;51.444;6.484;2023-09-07T09:09:21;14.43;;;5.07;;
3843;SDS011;1937;51.444;6.484;2023-09-07T09:11:49;6.33;;;3.90;;
3843;SDS011;1937;51.444;6.484;2023-09-07T09:14:16;5.53;;;4.10;;
3843;SDS011;1937;51.444;6.484;2023-09-07T09:16:47;5.50;;;4.17;;
3843;SDS011;1937;51.444;6.484;2023-09-07T09:19:15;9.50;;;4.50;;
3843;SDS011;1937;51.444;6.484;2023-09-07T09:21:42;5.20;;;4.40;;
3843;SDS011;1937;51.444;6.484;2023-09-07T09:24:12;3.63;;;3.13;;
3843;SDS011;1937;51.444;6.484;2023-09-07T09:26:39;4.20;;;3.17;;
3843;SDS011;1937;51.444;6.484;2023-09-07T09:29:06;4.07;;;3.70;;
3843;SDS011;1937;51.444;6.484;2023-09-07T09:31:35;4.90;;;3.70;;
3843;SDS011;1937;51.444;6.484;2023-09-07T09:34:02;6.30;;;4.33;;
3843;SDS011;1937;51.444;6.484;2023-09-07T09:36:32;6.70;;;4.37;;
3843;SDS011;1937;51.444;6.484;2023-09-07T09:39:00;6.60;;;3.50;;
3843;SDS011;1937;51.444;6.484;2023-09-07T09:41:29;3.83;;;3.53;;
3843;SDS011;1937;51.444;6.484;2023-09-07T09:43:58;4.10;;;3.70;;
3843;SDS011;1937;51.444;6.484;2023-09-07T09:46:27;4.93;;;3.47;;
3843;SDS011;1937;51.444;6.484;2023-09-07T09:48:55;4.00;;;3.60;;
3843;SDS011;1937;51.444;6.484;2023-09-07T09:51:23;6.10;;;3.80;;
3843;SDS011;1937;51.444;6.484;2023-09-07T09:53:51;5.10;;;3.90;;
3843;SDS011;1937;51.444;6.484;2023-09-07T09:56:19;5.10;;;3.87;;
3843;SDS011;1937;51.444;6.484;2023-09-07T09:58:47;5.63;;;4.03;;
3843;SDS011;1937;51.444;6.484;2023-09-07T10:01:14;6.50;;;3.67;;
3843;SDS011;1937;51.444;6.484;2023-09-07T10:03:42;4.67;;;4.07;;
3843;SDS011;1937;51.444;6.484;2023-09-07T10:06:11;9.00;;;4.30;;
3843;SDS011;1937;51.444;6.484;2023-09-07T10:08:50;7.83;;;3.83;;
3843;SDS011;1937;51.444;6.484;2023-09-07T10:11:25;6.43;;;3.70;;
3843;SDS011;1937;51.444;6.484;2023-09-07T10:13:58;4.33;;;3.60;;
3843;SDS011;1937;51.444;6.484;2023-09-07T10:16:24;6.03;;;3.90;;
3843;SDS011;1937;51.444;6.484;2023-09-07T10:18:52;6.53;;;4.80;;
3843;SDS011;1937;51.444;6.484;2023-09-07T10:21:20;5.97;;;3.97;;
3843;SDS011;1937;51.444;6.484;2023-09-07T10:23:51;6.53;;;3.80;;
3843;SDS011;1937;51.444;6.484;2023-09-07T10:26:18;4.23;;;3.73;;
3843;SDS011;1937;51.444;6.484;2023-09-07T10:28:47;7.37;;;3.43;;
3843;SDS011;1937;51.444;6.484;2023-09-07T10:31:25;4.40;;;3.70;;
3843;SDS011;1937;51.444;6.484;2023-09-07T10:33:53;6.63;;;4.10;;
3843;SDS011;1937;51.444;6.484;2023-09-07T10:36:20;4.77;;;3.90;;
3843;SDS011;1937;51.444;6.484;2023-09-07T10:38:48;5.70;;;3.83;;
3843;SDS011;1937;51.444;6.484;2023-09-07T10:41:19;7.33;;;3.23;;
3843;SDS011;1937;51.444;6.484;2023-09-07T10:43:47;3.70;;;3.40;;
3843;SDS011;1937;51.444;6.484;2023-09-07T10:46:17;3.70;;;3.40;;
3843;SDS011;1937;51.444;6.484;2023-09-07T10:48:46;3.50;;;3.20;;
3843;SDS011;1937;51.444;6.484;2023-09-07T10:51:16;3.87;;;3.20;;
3843;SDS011;1937;51.444;6.484;2023-09-07T10:53:43;3.67;;;3.37;;
3843;SDS011;1937;51.444;6.484;2023-09-07T10:56:10;4.30;;;3.90;;
3843;SDS011;1937;51.444;6.484;2023-09-07T10:58:37;4.20;;;3.73;;
3843;SDS011;1937;51.444;6.484;2023-09-07T11:01:05;3.90;;;3.50;;
3843;SDS011;1937;51.444;6.484;2023-09-07T11:03:32;3.60;;;3.30;;
3843;SDS011;1937;51.444;6.484;2023-09-07T11:06:03;4.23;;;3.83;;
3843;SDS011;1937;51.444;6.484;2023-09-07T11:08:33;4.50;;;4.10;;
3843;SDS011;1937;51.444;6.484;2023-09-07T11:11:00;4.30;;;3.90;;
3843;SDS011;1937;51.444;6.484;2023-09-07T11:13:28;4.30;;;3.90;;
3843;SDS011;1937;51.444;6.484;2023-09-07T11:15:55;4.13;;;3.37;;
3843;SDS011;1937;51.444;6.484;2023-09-07T11:18:23;5.10;;;4.43;;
3843;SDS011;1937;51.444;6.484;2023-09-07T11:20:51;4.57;;;3.63;;
3843;SDS011;1937;51.444;6.484;2023-09-07T11:23:20;5.87;;;3.93;;
3843;SDS011;1937;51.444;6.484;2023-09-07T11:25:48;5.97;;;3.03;;
3843;SDS011;1937;51.444;6.484;2023-09-07T11:28:16;3.57;;;3.27;;
3843;SDS011;1937;51.444;6.484;2023-09-07T11:30:50;7.30;;;4.33;;
3843;SDS011;1937;51.444;6.484;2023-09-07T11:33:17;4.37;;;3.57;;
3843;SDS011;1937;51.444;6.484;2023-09-07T11:35:44;3.63;;;3.33;;
3843;SDS011;1937;51.444;6.484;2023-09-07T11:38:12;4.80;;;4.30;;
3843;SDS011;1937;51.444;6.484;2023-09-07T11:40:41;5.10;;;4.37;;
3843;SDS011;1937;51.444;6.484;2023-09-07T11:43:09;4.87;;;3.80;;
3843;SDS011;1937;51.444;6.484;2023-09-07T11:45:36;5.43;;;4.23;;
3843;SDS011;1937;51.444;6.484;2023-09-07T11:48:03;4.80;;;3.30;;
3843;SDS011;1937;51.444;6.484;2023-09-07T11:50:30;4.27;;;3.70;;
3843;SDS011;1937;51.444;6.484;2023-09-07T11:52:57;5.90;;;3.50;;
3843;SDS011;1937;51.444;6.484;2023-09-07T11:55:23;3.73;;;3.17;;
3843;SDS011;1937;51.444;6.484;2023-09-07T11:57:51;5.50;;;3.93;;
3843;SDS011;1937;51.444;6.484;2023-09-07T12:00:18;4.90;;;3.67;;
3843;SDS011;1937;51.444;6.484;2023-09-07T12:02:46;4.00;;;3.60;;
3843;SDS011;1937;51.444;6.484;2023-09-07T12:05:13;4.73;;;3.20;;
3843;SDS011;1937;51.444;6.484;2023-09-07T12:07:40;3.73;;;3.30;;
3843;SDS011;1937;51.444;6.484;2023-09-07T12:10:08;4.07;;;3.67;;
3843;SDS011;1937;51.444;6.484;2023-09-07T12:12:35;4.53;;;3.60;;
3843;SDS011;1937;51.444;6.484;2023-09-07T12:15:07;6.00;;;3.70;;
3843;SDS011;1937;51.444;6.484;2023-09-07T12:17:34;3.27;;;2.97;;
3843;SDS011;1937;51.444;6.484;2023-09-07T12:20:01;4.30;;;3.17;;
3843;SDS011;1937;51.444;6.484;2023-09-07T12:22:28;3.70;;;3.37;;
3843;SDS011;1937;51.444;6.484;2023-09-07T12:24:55;3.97;;;3.57;;
3843;SDS011;1937;51.444;6.484;2023-09-07T12:27:22;5.23;;;3.00;;
3843;SDS011;1937;51.444;6.484;2023-09-07T12:29:48;3.00;;;2.70;;
3843;SDS011;1937;51.444;6.484;2023-09-07T12:32:17;3.40;;;3.10;;
3843;SDS011;1937;51.444;6.484;2023-09-07T12:34:44;3.23;;;2.93;;
3843;SDS011;1937;51.444;6.484;2023-09-07T12:37:10;4.77;;;3.20;;
3843;SDS011;1937;51.444;6.484;2023-09-07T12:39:37;4.27;;;3.70;;
3843;SDS011;1937;51.444;6.484;2023-09-07T12:42:04;3.60;;;3.30;;
3843;SDS011;1937;51.444;6.484;2023-09-07T12:44:31;5.60;;;3.70;;
3843;SDS011;1937;51.444;6.484;2023-09-07T12:46:57;4.27;;;3.70;;
3843;SDS011;1937;51.444;6.484;2023-09-07T12:49:25;4.00;;;3.10;;
3843;SDS011;1937;51.444;6.484;2023-09-07T12:51:52;4.93;;;3.30;;
3843;SDS011;1937;51.444;6.484;2023-09-07T12:54:18;3.17;;;2.97;;
3843;SDS011;1937;51.444;6.484;2023-09-07T12:56:45;6.40;;;3.07;;
3843;SDS011;1937;51.444;6.484;2023-09-07T12:59:12;4.00;;;3.30;;
3843;SDS011;1937;51.444;6.484;2023-09-07T13:01:38;5.67;;;4.03;;
3843;SDS011;1937;51.444;6.484;2023-09-07T13:04:05;4.00;;;3.30;;
3843;SDS011;1937;51.444;6.484;2023-09-07T13:06:33;4.80;;;3.17;;
3843;SDS011;1937;51.444;6.484;2023-09-07T13:09:00;4.57;;;3.30;;
3843;SDS011;1937;51.444;6.484;2023-09-07T13:11:26;4.20;;;3.50;;
3843;SDS011;1937;51.444;6.484;2023-09-07T13:13:53;3.57;;;3.27;;
3843;SDS011;1937;51.444;6.484;2023-09-07T13:16:20;4.20;;;3.50;;
3843;SDS011;1937;51.444;6.484;2023-09-07T13:18:46;4.60;;;4.20;;
3843;SDS011;1937;51.444;6.484;2023-09-07T13:21:13;4.27;;;3.30;;
3843;SDS011;1937;51.444;6.484;2023-09-07T13:23:41;3.57;;;3.20;;
3843;SDS011;1937;51.444;6.484;2023-09-07T13:26:11;6.93;;;4.50;;
3843;SDS011;1937;51.444;6.484;2023-09-07T13:28:38;4.33;;;3.23;;
3843;SDS011;1937;51.444;6.484;2023-09-07T13:31:06;4.70;;;3.80;;
3843;SDS011;1937;51.444;6.484;2023-09-07T13:33:33;3.80;;;3.50;;
3843;SDS011;1937;51.444;6.484;2023-09-07T13:35:59;3.90;;;3.60;;
3843;SDS011;1937;51.444;6.484;2023-09-07T13:38:26;4.50;;;3.80;;
3843;SDS011;1937;51.444;6.484;2023-09-07T13:40:54;3.60;;;3.30;;
3843;SDS011;1937;51.444;6.484;2023-09-07T13:43:21;4.93;;;3.87;;
3843;SDS011;1937;51.444;6.484;2023-09-07T13:45:50;6.37;;;3.80;;
3843;SDS011;1937;51.444;6.484;2023-09-07T13:48:17;4.87;;;3.90;;
3843;SDS011;1937;51.444;6.484;2023-09-07T13:50:43;4.73;;;3.50;;
3843;SDS011;1937;51.444;6.484;2023-09-07T13:53:13;5.17;;;3.73;;
3843;SDS011;1937;51.444;6.484;2023-09-07T13:55:40;4.53;;;3.80;;
3843;SDS011;1937;51.444;6.484;2023-09-07T13:58:10;6.70;;;3.57;;
3843;SDS011;1937;51.444;6.484;2023-09-07T14:00:36;5.03;;;3.50;;
3843;SDS011;1937;51.444;6.484;2023-09-07T14:03:03;3.80;;;3.27;;
3843;SDS011;1937;51.444;6.484;2023-09-07T14:05:30;3.33;;;3.03;;
3843;SDS011;1937;51.444;6.484;2023-09-07T14:07:57;4.20;;;3.20;;
3843;SDS011;1937;51.444;6.484;2023-09-07T14:10:23;3.83;;;3.43;;
3843;SDS011;1937;51.444;6.484;2023-09-07T14:12:50;6.10;;;3.40;;
3843;SDS011;1937;51.444;6.484;2023-09-07T14:15:18;4.73;;;3.20;;
3843;SDS011;1937;51.444;6.484;2023-09-07T14:17:44;6.43;;;3.50;;
3843;SDS011;1937;51.444;6.484;2023-09-07T14:20:11;3.63;;;3.30;;
3843;SDS011;1937;51.444;6.484;2023-09-07T14:22:38;4.70;;;3.20;;
3843;SDS011;1937;51.444;6.484;2023-09-07T14:25:05;5.47;;;4.03;;
3843;SDS011;1937;51.444;6.484;2023-09-07T14:27:33;4.30;;;3.87;;
3843;SDS011;1937;51.444;6.484;2023-09-07T14:29:59;9.83;;;4.20;;
3843;SDS011;1937;51.444;6.484;2023-09-07T14:32:27;4.60;;;3.73;;
3843;SDS011;1937;51.444;6.484;2023-09-07T14:34:54;5.87;;;3.70;;
3843;SDS011;1937;51.444;6.484;2023-09-07T14:37:21;6.07;;;3.30;;
3843;SDS011;1937;51.444;6.484;2023-09-07T14:39:47;4.27;;;3.27;;
3843;SDS011;1937;51.444;6.484;2023-09-07T14:42:15;3.90;;;3.50;;
3843;SDS011;1937;51.444;6.484;2023-09-07T14:44:44;5.13;;;3.90;;
3843;SDS011;1937;51.444;6.484;2023-09-07T14:47:12;4.67;;;4.07;;
3843;SDS011;1937;51.444;6.484;2023-09-07T14:49:40;7.27;;;4.20;;
3843;SDS011;1937;51.444;6.484;2023-09-07T14:52:07;3.93;;;3.53;;
3843;SDS011;1937;51.444;6.484;2023-09-07T14:54:34;5.77;;;3.33;;
3843;SDS011;1937;51.444;6.484;2023-09-07T14:57:00;4.27;;;3.23;;
3843;SDS011;1937;51.444;6.484;2023-09-07T14:59:28;5.73;;;3.63;;
3843;SDS011;1937;51.444;6.484;2023-09-07T15:01:54;5.27;;;3.30;;
3843;SDS011;1937;51.444;6.484;2023-09-07T15:04:21;4.20;;;3.80;;
3843;SDS011;1937;51.444;6.484;2023-09-07T15:06:49;3.87;;;3.57;;
3843;SDS011;1937;51.444;6.484;2023-09-07T15:09:15;6.13;;;4.17;;
3843;SDS011;1937;51.444;6.484;2023-09-07T15:11:42;3.83;;;3.53;;
3843;SDS011;1937;51.444;6.484;2023-09-07T15:14:09;4.27;;;3.87;;